createdAt,value
2023-01-11T17:21:04.306Z,9.97
2023-01-11T17:26:14.703Z,10.53
2023-01-11T17:31:24.264Z,10.85
2023-01-11T17:36:32.518Z,11.01
2023-01-11T17:41:50.097Z,11.09
2023-01-11T17:46:55.555Z,11.09
2023-01-11T17:52:11.408Z,11.11
2023-01-11T17:57:16.962Z,11.05
2023-01-11T18:02:22.177Z,11.00
2023-01-11T18:07:29.986Z,10.98
2023-01-11T18:12:37.461Z,10.94
2023-01-11T18:17:43.363Z,10.89
2023-01-11T18:23:04.578Z,10.87
2023-01-11T18:28:32.342Z,10.82
2023-01-11T18:33:37.636Z,10.82
2023-01-11T18:38:45.379Z,10.87
2023-01-11T18:43:50.557Z,10.90
2023-01-11T18:48:55.725Z,10.90
2023-01-11T18:54:03.501Z,10.87
2023-01-11T18:59:08.740Z,10.83
2023-01-11T19:04:13.894Z,10.78
2023-01-11T19:09:21.720Z,10.73
2023-01-11T19:14:26.879Z,10.73
2023-01-11T19:19:31.997Z,10.71
2023-01-11T19:24:39.846Z,10.64
2023-01-11T19:29:44.927Z,10.55
2023-01-11T19:34:50.972Z,10.51
2023-01-11T19:39:58.685Z,10.46
2023-01-11T19:45:03.780Z,10.38
2023-01-11T19:50:09.745Z,10.34
2023-01-11T19:55:20.872Z,10.38
2023-01-11T20:00:28.423Z,10.48
2023-01-11T20:05:34.231Z,10.65
2023-01-11T20:10:42.047Z,10.81
2023-01-11T20:15:47.459Z,10.81
2023-01-11T20:20:58.325Z,10.80
2023-01-11T20:26:07.708Z,10.77
2023-01-11T20:31:13.039Z,10.71
2023-01-11T20:36:20.244Z,10.70
2023-01-11T20:41:41.362Z,10.73
2023-01-11T20:46:48.114Z,10.80
2023-01-11T20:51:53.517Z,10.89
2023-01-11T20:57:05.482Z,10.97
2023-01-11T21:02:13.677Z,10.98
2023-01-11T21:07:18.841Z,11.00
2023-01-11T21:12:26.732Z,11.01
2023-01-11T21:17:31.925Z,11.08
2023-01-11T21:22:37.261Z,11.22
2023-01-11T21:27:45.062Z,11.36
2023-01-11T21:32:50.193Z,11.59
2023-01-11T21:37:55.556Z,11.81
2023-01-11T21:43:03.353Z,11.97
2023-01-11T21:48:09.793Z,11.99
2023-01-11T21:53:15.099Z,11.99
2023-01-11T21:58:22.847Z,12.03
2023-01-11T22:03:30.154Z,12.05
2023-01-11T22:08:37.582Z,12.16
2023-01-11T22:13:45.376Z,12.22
2023-01-11T22:18:50.574Z,12.26
2023-01-11T22:23:56.693Z,12.29
